sensor_id;sensor_type;location;lat;lon;timestamp;pressure;altitude;pressure_sealevel;temperature;humidity
64886;BME280;51514;52.206;5.114;2023-04-15T00:01:34;100945.44;;;9.44;60.99
64886;BME280;51514;52.206;5.114;2023-04-15T00:04:01;100946.84;;;9.48;60.79
64886;BME280;51514;52.206;5.114;2023-04-15T00:06:26;100944.72;;;9.51;60.63
64886;BME280;51514;52.206;5.114;2023-04-15T00:08:52;100943.88;;;9.51;60.39
64886;BME280;51514;52.206;5.114;2023-04-15T00:11:17;100949.25;;;9.51;60.62
64886;BME280;51514;52.206;5.114;2023-04-15T00:13:44;100947.22;;;9.53;60.79
64886;BME280;51514;52.206;5.114;2023-04-15T00:16:09;100946.22;;;9.54;60.48
64886;BME280;51514;52.206;5.114;2023-04-15T00:18:36;100947.22;;;9.53;60.73
64886;BME280;51514;52.206;5.114;2023-04-15T00:21:01;100945.94;;;9.57;60.44
64886;BME280;51514;52.206;5.114;2023-04-15T00:23:27;100953.31;;;9.55;60.50
64886;BME280;51514;52.206;5.114;2023-04-15T00:25:52;100944.25;;;9.56;60.83
64886;BME280;51514;52.206;5.114;2023-04-15T00:28:18;100942.13;;;9.60;61.22
64886;BME280;51514;52.206;5.114;2023-04-15T00:30:43;100947.22;;;9.53;60.99
64886;BME280;51514;52.206;5.114;2023-04-15T00:33:09;100947.69;;;9.48;61.27
64886;BME280;51514;52.206;5.114;2023-04-15T00:35:35;100945.16;;;9.47;61.29
64886;BME280;51514;52.206;5.114;2023-04-15T00:38:01;100946.84;;;9.48;61.62
64886;BME280;51514;52.206;5.114;2023-04-15T00:40:27;100953.06;;;9.48;61.30
64886;BME280;51514;52.206;5.114;2023-04-15T00:42:52;100948.53;;;9.49;61.84
64886;BME280;51514;52.206;5.114;2023-04-15T00:45:18;100951.94;;;9.51;61.99
64886;BME280;51514;52.206;5.114;2023-04-15T00:47:44;100951.38;;;9.47;61.77
64886;BME280;51514;52.206;5.114;2023-04-15T00:50:10;100953.13;;;9.39;62.43
64886;BME280;51514;52.206;5.114;2023-04-15T00:52:36;100947.03;;;9.37;62.34
64886;BME280;51514;52.206;5.114;2023-04-15T00:55:02;100948.03;;;9.36;62.78
64886;BME280;51514;52.206;5.114;2023-04-15T00:57:29;100949.47;;;9.30;62.96
64886;BME280;51514;52.206;5.114;2023-04-15T00:59:55;100956.41;;;9.33;62.64
64886;BME280;51514;52.206;5.114;2023-04-15T01:02:21;100955.59;;;9.23;63.43
64886;BME280;51514;52.206;5.114;2023-04-15T01:04:48;100956.56;;;9.22;63.57
64886;BME280;51514;52.206;5.114;2023-04-15T01:07:13;100952.78;;;9.14;63.47
64886;BME280;51514;52.206;5.114;2023-04-15T01:09:39;100947.56;;;9.13;63.95
64886;BME280;51514;52.206;5.114;2023-04-15T01:12:06;100947.56;;;9.13;63.85
64886;BME280;51514;52.206;5.114;2023-04-15T01:14:32;100952.38;;;9.09;64.19
64886;BME280;51514;52.206;5.114;2023-04-15T01:16:58;100950.38;;;9.11;63.50
64886;BME280;51514;52.206;5.114;2023-04-15T01:19:23;100951.09;;;9.13;63.64
64886;BME280;51514;52.206;5.114;2023-04-15T01:21:48;100951.81;;;9.15;63.40
64886;BME280;51514;52.206;5.114;2023-04-15T01:24:17;100950.94;;;9.15;63.63
64886;BME280;51514;52.206;5.114;2023-04-15T01:26:42;100944.72;;;9.14;63.68
64886;BME280;51514;52.206;5.114;2023-04-15T01:29:08;100945.47;;;9.07;64.13
64886;BME280;51514;52.206;5.114;2023-04-15T01:31:33;100953.81;;;9.04;64.29
64886;BME280;51514;52.206;5.114;2023-04-15T01:33:59;100961.91;;;8.94;64.93
64886;BME280;51514;52.206;5.114;2023-04-15T01:36:25;100952.00;;;8.95;64.80
64886;BME280;51514;52.206;5.114;2023-04-15T01:38:50;100958.38;;;8.94;64.95
64886;BME280;51514;52.206;5.114;2023-04-15T01:41:16;100965.06;;;8.80;66.40
64886;BME280;51514;52.206;5.114;2023-04-15T01:43:41;100959.78;;;8.88;65.44
64886;BME280;51514;52.206;5.114;2023-04-15T01:46:07;100961.81;;;8.86;66.41
64886;BME280;51514;52.206;5.114;2023-04-15T01:48:32;100963.78;;;8.84;65.75
64886;BME280;51514;52.206;5.114;2023-04-15T01:50:58;100964.63;;;8.85;66.71
64886;BME280;51514;52.206;5.114;2023-04-15T01:53:24;100957.84;;;8.81;66.88
64886;BME280;51514;52.206;5.114;2023-04-15T01:55:50;100961.09;;;8.84;67.24
64886;BME280;51514;52.206;5.114;2023-04-15T01:58:16;100965.75;;;8.82;67.26
64886;BME280;51514;52.206;5.114;2023-04-15T02:00:42;100962.78;;;8.85;67.92
64886;BME280;51514;52.206;5.114;2023-04-15T02:03:07;100968.72;;;8.79;68.05
64886;BME280;51514;52.206;5.114;2023-04-15T02:05:34;100966.06;;;8.69;68.87
64886;BME280;51514;52.206;5.114;2023-04-15T02:07:59;100957.56;;;8.74;68.44
64886;BME280;51514;52.206;5.114;2023-04-15T02:10:24;100962.25;;;8.72;68.45
64886;BME280;51514;52.206;5.114;2023-04-15T02:12:50;100959.25;;;8.65;69.01
64886;BME280;51514;52.206;5.114;2023-04-15T02:15:15;100952.22;;;8.64;68.98
64886;BME280;51514;52.206;5.114;2023-04-15T02:17:41;100958.72;;;8.62;69.11
64886;BME280;51514;52.206;5.114;2023-04-15T02:20:10;100965.50;;;8.66;69.06
64886;BME280;51514;52.206;5.114;2023-04-15T02:22:35;100969.63;;;8.60;69.49
64886;BME280;51514;52.206;5.114;2023-04-15T02:25:01;100968.06;;;8.58;69.63
64886;BME280;51514;52.206;5.114;2023-04-15T02:27:26;100972.44;;;8.59;69.69
64886;BME280;51514;52.206;5.114;2023-04-15T02:29:53;100972.56;;;8.57;69.54
64886;BME280;51514;52.206;5.114;2023-04-15T02:32:18;100975.41;;;8.56;70.13
64886;BME280;51514;52.206;5.114;2023-04-15T02:34:45;100983.06;;;8.51;70.38
64886;BME280;51514;52.206;5.114;2023-04-15T02:37:11;100987.84;;;8.57;71.21
64886;BME280;51514;52.206;5.114;2023-04-15T02:39:37;100987.56;;;8.60;71.05
64886;BME280;51514;52.206;5.114;2023-04-15T02:42:03;100997.22;;;8.53;71.63
64886;BME280;51514;52.206;5.114;2023-04-15T02:44:30;100994.53;;;8.53;72.13
64886;BME280;51514;52.206;5.114;2023-04-15T02:46:57;100994.78;;;8.50;72.19
64886;BME280;51514;52.206;5.114;2023-04-15T02:49:23;100988.13;;;8.44;72.62
64886;BME280;51514;52.206;5.114;2023-04-15T02:51:49;100995.66;;;8.40;72.61
64886;BME280;51514;52.206;5.114;2023-04-15T02:54:18;101001.28;;;8.37;72.89
64886;BME280;51514;52.206;5.114;2023-04-15T02:56:44;101001.03;;;8.40;73.53
64886;BME280;51514;52.206;5.114;2023-04-15T02:59:11;101008.94;;;8.32;74.68
64886;BME280;51514;52.206;5.114;2023-04-15T03:01:36;101006.66;;;8.37;73.69
64886;BME280;51514;52.206;5.114;2023-04-15T03:04:02;101000.72;;;8.34;74.28
64886;BME280;51514;52.206;5.114;2023-04-15T03:06:27;101014.41;;;8.31;74.58
64886;BME280;51514;52.206;5.114;2023-04-15T03:08:52;101013.00;;;8.27;75.41
64886;BME280;51514;52.206;5.114;2023-04-15T03:11:18;101009.47;;;8.26;74.72
64886;BME280;51514;52.206;5.114;2023-04-15T03:13:44;101012.72;;;8.20;75.58
64886;BME280;51514;52.206;5.114;2023-04-15T03:16:10;101021.03;;;8.17;76.54
64886;BME280;51514;52.206;5.114;2023-04-15T03:18:35;101017.63;;;8.15;76.75
64886;BME280;51514;52.206;5.114;2023-04-15T03:21:00;101018.22;;;8.19;77.03
64886;BME280;51514;52.206;5.114;2023-04-15T03:23:27;101015.66;;;8.17;77.29
64886;BME280;51514;52.206;5.114;2023-04-15T03:25:52;101024.00;;;8.14;77.00
64886;BME280;51514;52.206;5.114;2023-04-15T03:28:21;101030.47;;;8.12;77.49
64886;BME280;51514;52.206;5.114;2023-04-15T03:30:46;101025.41;;;8.09;78.15
64886;BME280;51514;52.206;5.114;2023-04-15T03:33:11;101030.34;;;8.13;78.24
64886;BME280;51514;52.206;5.114;2023-04-15T03:35:37;101034.75;;;8.14;77.72
64886;BME280;51514;52.206;5.114;2023-04-15T03:38:02;101031.91;;;8.16;77.87
64886;BME280;51514;52.206;5.114;2023-04-15T03:40:27;101036.69;;;8.12;78.61
64886;BME280;51514;52.206;5.114;2023-04-15T03:42:53;101039.25;;;8.14;78.85
64886;BME280;51514;52.206;5.114;2023-04-15T03:45:18;101038.38;;;8.03;78.85
64886;BME280;51514;52.206;5.114;2023-04-15T03:47:43;101041.78;;;8.05;79.29
64886;BME280;51514;52.206;5.114;2023-04-15T03:50:09;101049.72;;;8.07;79.43
64886;BME280;51514;52.206;5.114;2023-04-15T03:52:35;101049.72;;;8.07;79.14
64886;BME280;51514;52.206;5.114;2023-04-15T03:55:00;101052.66;;;8.04;80.15
64886;BME280;51514;52.206;5.114;2023-04-15T03:57:26;101053.66;;;8.03;80.00
64886;BME280;51514;52.206;5.114;2023-04-15T03:59:51;101058.16;;;8.02;80.10
64886;BME280;51514;52.206;5.114;2023-04-15T04:02:17;101060.13;;;8.00;79.43
64886;BME280;51514;52.206;5.114;2023-04-15T04:04:42;101060.44;;;7.97;79.95
64886;BME280;51514;52.206;5.114;2023-04-15T04:07:07;101069.03;;;8.01;80.54
64886;BME280;51514;52.206;5.114;2023-04-15T04:09:33;101064.94;;;7.97;80.52
64886;BME280;51514;52.206;5.114;2023-04-15T04:11:58;101071.69;;;7.91;80.90
64886;BME280;51514;52.206;5.114;2023-04-15T04:14:24;101078.91;;;7.91;80.99
64886;BME280;51514;52.206;5.114;2023-04-15T04:16:54;101066.47;;;7.90;81.25
64886;BME280;51514;52.206;5.114;2023-04-15T04:19:19;101064.63;;;7.90;81.41
64886;BME280;51514;52.206;5.114;2023-04-15T04:21:45;101076.94;;;7.93;81.38
64886;BME280;51514;52.206;5.114;2023-04-15T04:24:10;101079.47;;;7.85;81.71
64886;BME280;51514;52.206;5.114;2023-04-15T04:26:36;101082.28;;;7.83;82.23
64886;BME280;51514;52.206;5.114;2023-04-15T04:29:01;101084.69;;;7.86;81.53
64886;BME280;51514;52.206;5.114;2023-04-15T04:31:27;101088.94;;;7.89;81.70
64886;BME280;51514;52.206;5.114;2023-04-15T04:33:52;101087.25;;;7.88;81.72
64886;BME280;51514;52.206;5.114;2023-04-15T04:36:17;101094.31;;;7.89;82.09
64886;BME280;51514;52.206;5.114;2023-04-15T04:38:43;101095.31;;;7.88;81.79
64886;BME280;51514;52.206;5.114;2023-04-15T04:41:08;101099.72;;;7.98;81.51
64886;BME280;51514;52.206;5.114;2023-04-15T04:43:33;101108.63;;;7.99;81.13
64886;BME280;51514;52.206;5.114;2023-04-15T04:45:59;101111.59;;;8.05;81.00
64886;BME280;51514;52.206;5.114;2023-04-15T04:48:24;101120.97;;;8.11;80.86
64886;BME280;51514;52.206;5.114;2023-04-15T04:50:50;101119.09;;;8.12;80.69
64886;BME280;51514;52.206;5.114;2023-04-15T04:53:15;101116.38;;;8.02;81.24
64886;BME280;51514;52.206;5.114;2023-04-15T04:55:42;101126.44;;;8.00;81.14
64886;BME280;51514;52.206;5.114;2023-04-15T04:58:07;101133.31;;;7.93;82.08
64886;BME280;51514;52.206;5.114;2023-04-15T05:00:32;101134.13;;;7.84;82.55
64886;BME280;51514;52.206;5.114;2023-04-15T05:02:58;101139.09;;;7.88;82.28
64886;BME280;51514;52.206;5.114;2023-04-15T05:05:23;101141.38;;;7.93;82.53
64886;BME280;51514;52.206;5.114;2023-04-15T05:07:49;101144.91;;;7.93;82.56
64886;BME280;51514;52.206;5.114;2023-04-15T05:10:14;101151.69;;;7.88;82.91
64886;BME280;51514;52.206;5.114;2023-04-15T05:12:41;101151.22;;;7.83;83.59
64886;BME280;51514;52.206;5.114;2023-04-15T05:15:07;101155.59;;;7.84;83.74
64886;BME280;51514;52.206;5.114;2023-04-15T05:17:33;101153.91;;;7.83;83.72
64886;BME280;51514;52.206;5.114;2023-04-15T05:19:59;101157.06;;;7.88;83.21
64886;BME280;51514;52.206;5.114;2023-04-15T05:22:25;101164.91;;;7.80;83.99
64886;BME280;51514;52.206;5.114;2023-04-15T05:24:50;101170.81;;;7.74;84.50
64886;BME280;51514;52.206;5.114;2023-04-15T05:27:15;101176.31;;;7.72;84.43
64886;BME280;51514;52.206;5.114;2023-04-15T05:29:41;101181.06;;;7.68;85.32
64886;BME280;51514;52.206;5.114;2023-04-15T05:32:06;101182.34;;;7.64;85.89
64886;BME280;51514;52.206;5.114;2023-04-15T05:34:32;101186.25;;;7.60;86.31
64886;BME280;51514;52.206;5.114;2023-04-15T05:36:57;101188.94;;;7.60;85.80
64886;BME280;51514;52.206;5.114;2023-04-15T05:39:22;101193.94;;;7.65;86.31
64886;BME280;51514;52.206;5.114;2023-04-15T05:41:48;101205.59;;;7.54;86.78
64886;BME280;51514;52.206;5.114;2023-04-15T05:44:13;101212.00;;;7.63;86.04
64886;BME280;51514;52.206;5.114;2023-04-15T05:46:38;101205.63;;;7.64;86.79
64886;BME280;51514;52.206;5.114;2023-04-15T05:49:04;101217.78;;;7.68;86.99
64886;BME280;51514;52.206;5.114;2023-04-15T05:51:29;101214.59;;;7.74;86.35
64886;BME280;51514;52.206;5.114;2023-04-15T05:53:55;101214.06;;;7.80;86.82
64886;BME280;51514;52.206;5.114;2023-04-15T05:56:20;101223.19;;;7.89;87.09
64886;BME280;51514;52.206;5.114;2023-04-15T05:58:46;101229.97;;;7.93;86.60
64886;BME280;51514;52.206;5.114;2023-04-15T06:01:11;101227.47;;;8.01;86.04
64886;BME280;51514;52.206;5.114;2023-04-15T06:03:37;101238.81;;;8.04;85.79
64886;BME280;51514;52.206;5.114;2023-04-15T06:06:03;101239.78;;;8.03;87.35
64886;BME280;51514;52.206;5.114;2023-04-15T06:08:28;101242.25;;;8.16;86.24
64886;BME280;51514;52.206;5.114;2023-04-15T06:10:53;101250.31;;;8.16;86.88
64886;BME280;51514;52.206;5.114;2023-04-15T06:13:19;101261.78;;;8.18;86.19
64886;BME280;51514;52.206;5.114;2023-04-15T06:15:44;101259.81;;;8.20;86.12
64886;BME280;51514;52.206;5.114;2023-04-15T06:18:10;101265.38;;;8.28;86.07
64886;BME280;51514;52.206;5.114;2023-04-15T06:20:35;101274.16;;;8.30;86.60
64886;BME280;51514;52.206;5.114;2023-04-15T06:23:01;101282.44;;;8.38;86.22
64886;BME280;51514;52.206;5.114;2023-04-15T06:25:27;101279.75;;;8.38;86.09
64886;BME280;51514;52.206;5.114;2023-04-15T06:27:52;101283.88;;;8.43;85.69
64886;BME280;51514;52.206;5.114;2023-04-15T06:30:17;101285.16;;;8.48;85.43
64886;BME280;51514;52.206;5.114;2023-04-15T06:32:43;101291.25;;;8.50;85.48
64886;BME280;51514;52.206;5.114;2023-04-15T06:35:08;101291.88;;;8.63;85.28
64886;BME280;51514;52.206;5.114;2023-04-15T06:37:34;101297.03;;;8.76;84.71
64886;BME280;51514;52.206;5.114;2023-04-15T06:39:59;101307.66;;;8.87;83.65
64886;BME280;51514;52.206;5.114;2023-04-15T06:42:25;101311.25;;;8.97;83.57
64886;BME280;51514;52.206;5.114;2023-04-15T06:44:50;101308.28;;;9.10;83.46
64886;BME280;51514;52.206;5.114;2023-04-15T06:47:15;101311.72;;;9.31;83.26
64886;BME280;51514;52.206;5.114;2023-04-15T06:49:41;101311.06;;;9.39;82.71
64886;BME280;51514;52.206;5.114;2023-04-15T06:52:07;101313.88;;;9.47;82.41
64886;BME280;51514;52.206;5.114;2023-04-15T06:54:32;101312.63;;;9.70;82.37
64886;BME280;51514;52.206;5.114;2023-04-15T06:56:58;101317.28;;;9.87;81.25
64886;BME280;51514;52.206;5.114;2023-04-15T06:59:23;101318.56;;;10.03;81.00
64886;BME280;51514;52.206;5.114;2023-04-15T07:01:49;101326.50;;;10.14;79.94
64886;BME280;51514;52.206;5.114;2023-04-15T07:04:15;101325.91;;;10.30;79.58
64886;BME280;51514;52.206;5.114;2023-04-15T07:06:40;101338.09;;;10.43;78.62
64886;BME280;51514;52.206;5.114;2023-04-15T07:09:06;101339.47;;;10.57;78.29
64886;BME280;51514;52.206;5.114;2023-04-15T07:11:31;101338.69;;;10.37;76.86
64886;BME280;51514;52.206;5.114;2023-04-15T07:13:57;101344.31;;;10.53;77.42
64886;BME280;51514;52.206;5.114;2023-04-15T07:16:22;101341.59;;;10.53;74.92
64886;BME280;51514;52.206;5.114;2023-04-15T07:18:48;101358.59;;;10.64;74.71
64886;BME280;51514;52.206;5.114;2023-04-15T07:21:13;101357.44;;;10.76;73.16
64886;BME280;51514;52.206;5.114;2023-04-15T07:23:38;101360.84;;;10.78;72.39
64886;BME280;51514;52.206;5.114;2023-04-15T07:26:04;101364.34;;;10.88;72.82
64886;BME280;51514;52.206;5.114;2023-04-15T07:28:29;101370.66;;;11.06;71.90
64886;BME280;51514;52.206;5.114;2023-04-15T07:30:55;101372.78;;;11.12;72.86
64886;BME280;51514;52.206;5.114;2023-04-15T07:33:24;101386.44;;;11.28;70.91
64886;BME280;51514;52.206;5.114;2023-04-15T07:35:49;101390.84;;;11.29;69.18
64886;BME280;51514;52.206;5.114;2023-04-15T07:38:14;101392.00;;;11.27;68.56
64886;BME280;51514;52.206;5.114;2023-04-15T07:40:40;101389.09;;;11.38;67.10
64886;BME280;51514;52.206;5.114;2023-04-15T07:43:06;101392.72;;;11.47;67.61
64886;BME280;51514;52.206;5.114;2023-04-15T07:45:33;101390.63;;;11.68;66.20
64886;BME280;51514;52.206;5.114;2023-04-15T07:47:58;101399.34;;;11.62;65.78
64886;BME280;51514;52.206;5.114;2023-04-15T07:50:23;101396.22;;;11.84;66.81
64886;BME280;51514;52.206;5.114;2023-04-15T07:52:49;101404.94;;;12.14;66.21
64886;BME280;51514;52.206;5.114;2023-04-15T07:55:15;101404.63;;;12.34;65.40
64886;BME280;51514;52.206;5.114;2023-04-15T07:57:43;101410.47;;;12.48;64.17
64886;BME280;51514;52.206;5.114;2023-04-15T08:00:09;101414.72;;;12.50;63.51
64886;BME280;51514;52.206;5.114;2023-04-15T08:02:35;101415.28;;;12.54;64.54
64886;BME280;51514;52.206;5.114;2023-04-15T08:05:00;101426.44;;;12.33;63.11
64886;BME280;51514;52.206;5.114;2023-04-15T08:07:28;101426.84;;;12.46;62.44
64886;BME280;51514;52.206;5.114;2023-04-15T08:09:53;101426.41;;;12.51;62.66
64886;BME280;51514;52.206;5.114;2023-04-15T08:12:19;101437.63;;;12.38;62.58
64886;BME280;51514;52.206;5.114;2023-04-15T08:14:44;101442.38;;;12.44;62.57
64886;BME280;51514;52.206;5.114;2023-04-15T08:17:10;101436.28;;;12.60;62.65
64886;BME280;51514;52.206;5.114;2023-04-15T08:19:36;101433.94;;;12.91;63.65
64886;BME280;51514;52.206;5.114;2023-04-15T08:22:01;101436.66;;;12.91;62.30
64886;BME280;51514;52.206;5.114;2023-04-15T08:24:27;101438.53;;;13.16;62.59
64886;BME280;51514;52.206;5.114;2023-04-15T08:26:52;101450.41;;;13.23;61.17
64886;BME280;51514;52.206;5.114;2023-04-15T08:29:18;101445.09;;;13.39;60.59
64886;BME280;51514;52.206;5.114;2023-04-15T08:31:43;101449.59;;;13.31;60.44
64886;BME280;51514;52.206;5.114;2023-04-15T08:34:13;101443.59;;;13.53;62.25
64886;BME280;51514;52.206;5.114;2023-04-15T08:36:39;101453.69;;;13.77;61.09
64886;BME280;51514;52.206;5.114;2023-04-15T08:39:04;101458.16;;;14.02;59.74
64886;BME280;51514;52.206;5.114;2023-04-15T08:41:44;101460.91;;;14.10;58.27
64886;BME280;51514;52.206;5.114;2023-04-15T08:44:13;101462.19;;;13.90;56.25
64886;BME280;51514;52.206;5.114;2023-04-15T08:46:40;101475.78;;;14.06;58.04
64886;BME280;51514;52.206;5.114;2023-04-15T08:49:11;101470.25;;;14.16;59.19
64886;BME280;51514;52.206;5.114;2023-04-15T08:51:40;101477.16;;;14.18;59.11
64886;BME280;51514;52.206;5.114;2023-04-15T08:54:07;101484.34;;;14.36;57.48
64886;BME280;51514;52.206;5.114;2023-04-15T08:56:33;101485.75;;;14.48;57.06
64886;BME280;51514;52.206;5.114;2023-04-15T08:58:59;101488.44;;;14.56;57.12
64886;BME280;51514;52.206;5.114;2023-04-15T09:01:25;101492.19;;;14.63;57.02
64886;BME280;51514;52.206;5.114;2023-04-15T09:03:51;101491.84;;;14.66;55.49
64886;BME280;51514;52.206;5.114;2023-04-15T09:06:17;101503.88;;;14.72;56.73
64886;BME280;51514;52.206;5.114;2023-04-15T09:08:43;101505.75;;;14.71;56.11
64886;BME280;51514;52.206;5.114;2023-04-15T09:11:09;101492.16;;;14.71;55.27
64886;BME280;51514;52.206;5.114;2023-04-15T09:13:34;101498.44;;;14.72;54.80
64886;BME280;51514;52.206;5.114;2023-04-15T09:16:04;101497.28;;;14.90;53.67
64886;BME280;51514;52.206;5.114;2023-04-15T09:18:31;101504.72;;;15.13;54.14
64886;BME280;51514;52.206;5.114;2023-04-15T09:21:11;101507.56;;;15.19;52.10
64886;BME280;51514;52.206;5.114;2023-04-15T09:23:38;101511.28;;;15.26;52.46
64886;BME280;51514;52.206;5.114;2023-04-15T09:26:04;101517.75;;;15.33;53.04
64886;BME280;51514;52.206;5.114;2023-04-15T09:28:31;101520.97;;;15.29;53.63
64886;BME280;51514;52.206;5.114;2023-04-15T09:30:57;101524.19;;;15.32;52.39
64886;BME280;51514;52.206;5.114;2023-04-15T09:33:23;101526.19;;;15.47;53.49
64886;BME280;51514;52.206;5.114;2023-04-15T09:36:02;101533.72;;;15.20;52.16
64886;BME280;51514;52.206;5.114;2023-04-15T09:38:28;101533.88;;;15.35;53.29
64886;BME280;51514;52.206;5.114;2023-04-15T09:40:54;101533.19;;;15.41;53.27
64886;BME280;51514;52.206;5.114;2023-04-15T09:43:19;101537.28;;;15.21;52.94
64886;BME280;51514;52.206;5.114;2023-04-15T09:45:47;101547.31;;;15.04;52.48
64886;BME280;51514;52.206;5.114;2023-04-15T09:48:21;101555.81;;;14.93;53.84
64886;BME280;51514;52.206;5.114;2023-04-15T09:50:48;101560.06;;;14.79;53.74
64886;BME280;51514;52.206;5.114;2023-04-15T09:53:17;101551.22;;;14.85;54.88
64886;BME280;51514;52.206;5.114;2023-04-15T09:55:54;101559.03;;;14.88;56.10
64886;BME280;51514;52.206;5.114;2023-04-15T09:58:22;101560.41;;;14.92;54.35
64886;BME280;51514;52.206;5.114;2023-04-15T10:00:49;101561.41;;;14.83;54.42
64886;BME280;51514;52.206;5.114;2023-04-15T10:03:19;101564.81;;;14.85;54.22
64886;BME280;51514;52.206;5.114;2023-04-15T10:05:47;101570.91;;;14.79;54.70
64886;BME280;51514;52.206;5.114;2023-04-15T10:08:16;101561.75;;;14.88;56.08
64886;BME280;51514;52.206;5.114;2023-04-15T10:10:41;101566.53;;;15.03;55.68
64886;BME280;51514;52.206;5.114;2023-04-15T10:13:07;101571.25;;;15.01;56.00
64886;BME280;51514;52.206;5.114;2023-04-15T10:15:34;101576.53;;;15.02;56.11
64886;BME280;51514;52.206;5.114;2023-04-15T10:18:00;101575.31;;;15.05;56.61
64886;BME280;51514;52.206;5.114;2023-04-15T10:20:27;101580.94;;;15.19;55.94
64886;BME280;51514;52.206;5.114;2023-04-15T10:22:53;101583.81;;;15.10;56.26
64886;BME280;51514;52.206;5.114;2023-04-15T10:25:20;101585.50;;;15.19;56.16
64886;BME280;51514;52.206;5.114;2023-04-15T10:27:45;101587.38;;;15.34;56.11
64886;BME280;51514;52.206;5.114;2023-04-15T10:30:12;101592.13;;;15.16;55.68
64886;BME280;51514;52.206;5.114;2023-04-15T10:32:39;101582.78;;;15.19;57.84
64886;BME280;51514;52.206;5.114;2023-04-15T10:35:06;101593.47;;;15.37;56.83
64886;BME280;51514;52.206;5.114;2023-04-15T10:37:37;101600.78;;;15.20;55.90
64886;BME280;51514;52.206;5.114;2023-04-15T10:40:30;101602.16;;;15.16;56.33
64886;BME280;51514;52.206;5.114;2023-04-15T10:42:58;101604.88;;;15.32;57.53
64886;BME280;51514;52.206;5.114;2023-04-15T10:45:26;101606.22;;;15.20;56.59
64886;BME280;51514;52.206;5.114;2023-04-15T10:47:57;101607.59;;;15.08;57.38
64886;BME280;51514;52.206;5.114;2023-04-15T10:50:25;101609.28;;;15.09;57.17
64886;BME280;51514;52.206;5.114;2023-04-15T10:52:51;101621.13;;;14.75;56.90
64886;BME280;51514;52.206;5.114;2023-04-15T10:55:24;101626.56;;;14.83;60.56
64886;BME280;51514;52.206;5.114;2023-04-15T10:57:54;101606.25;;;15.12;59.39
64886;BME280;51514;52.206;5.114;2023-04-15T11:00:28;101621.84;;;15.26;58.89
64886;BME280;51514;52.206;5.114;2023-04-15T11:03:07;101626.09;;;15.28;58.81
64886;BME280;51514;52.206;5.114;2023-04-15T11:05:48;101630.00;;;15.02;59.37
64886;BME280;51514;52.206;5.114;2023-04-15T11:08:14;101631.34;;;14.81;58.47
64886;BME280;51514;52.206;5.114;2023-04-15T11:15:36;101634.16;;;14.55;61.59
64886;BME280;51514;52.206;5.114;2023-04-15T11:20:38;101631.44;;;14.47;60.25
64886;BME280;51514;52.206;5.114;2023-04-15T11:23:05;101640.03;;;14.43;60.83
64886;BME280;51514;52.206;5.114;2023-04-15T11:25:32;101640.38;;;14.40;59.94
64886;BME280;51514;52.206;5.114;2023-04-15T11:27:59;101639.72;;;14.12;58.71
64886;BME280;51514;52.206;5.114;2023-04-15T11:30:27;101649.59;;;14.21;58.21
64886;BME280;51514;52.206;5.114;2023-04-15T11:32:56;101644.47;;;14.44;58.30
64886;BME280;51514;52.206;5.114;2023-04-15T11:35:22;101654.03;;;14.64;59.26
64886;BME280;51514;52.206;5.114;2023-04-15T11:37:48;101662.84;;;14.66;58.34
64886;BME280;51514;52.206;5.114;2023-04-15T11:40:14;101656.44;;;14.75;59.80
64886;BME280;51514;52.206;5.114;2023-04-15T11:42:44;101661.53;;;14.78;57.70
64886;BME280;51514;52.206;5.114;2023-04-15T11:45:11;101672.44;;;15.11;59.72
64886;BME280;51514;52.206;5.114;2023-04-15T11:47:38;101668.88;;;15.10;56.96
64886;BME280;51514;52.206;5.114;2023-04-15T11:50:33;101675.81;;;15.05;57.49
64886;BME280;51514;52.206;5.114;2023-04-15T11:53:02;101678.84;;;14.93;56.62
64886;BME280;51514;52.206;5.114;2023-04-15T11:55:29;101683.28;;;14.94;58.16
64886;BME280;51514;52.206;5.114;2023-04-15T11:58:19;101680.69;;;14.77;58.09
64886;BME280;51514;52.206;5.114;2023-04-15T12:00:57;101678.75;;;14.61;56.35
64886;BME280;51514;52.206;5.114;2023-04-15T12:11:12;101683.84;;;14.56;58.40
64886;BME280;51514;52.206;5.114;2023-04-15T12:13:43;101685.59;;;14.65;58.39
64886;BME280;51514;52.206;5.114;2023-04-15T12:16:08;101690.31;;;14.63;57.51
64886;BME280;51514;52.206;5.114;2023-04-15T12:18:36;101700.38;;;14.37;58.92
64886;BME280;51514;52.206;5.114;2023-04-15T12:21:09;101696.03;;;14.18;60.74
64886;BME280;51514;52.206;5.114;2023-04-15T12:23:39;101706.66;;;14.37;60.26
64886;BME280;51514;52.206;5.114;2023-04-15T12:26:11;101700.53;;;14.69;59.04
64886;BME280;51514;52.206;5.114;2023-04-15T12:28:39;101703.91;;;14.71;57.18
64886;BME280;51514;52.206;5.114;2023-04-15T12:31:09;101713.56;;;14.57;57.71
64886;BME280;51514;52.206;5.114;2023-04-15T12:33:35;101709.84;;;14.67;58.56
64886;BME280;51514;52.206;5.114;2023-04-15T12:36:00;101720.88;;;14.73;59.55
64886;BME280;51514;52.206;5.114;2023-04-15T12:38:26;101725.59;;;14.63;59.48
64886;BME280;51514;52.206;5.114;2023-04-15T12:40:51;101730.88;;;14.65;58.76
64886;BME280;51514;52.206;5.114;2023-04-15T12:43:17;101719.16;;;14.64;58.40
64886;BME280;51514;52.206;5.114;2023-04-15T12:45:42;101735.44;;;14.64;59.13
64886;BME280;51514;52.206;5.114;2023-04-15T12:48:07;101727.88;;;14.42;58.97
64886;BME280;51514;52.206;5.114;2023-04-15T12:50:34;101737.34;;;14.38;59.34
64886;BME280;51514;52.206;5.114;2023-04-15T12:52:59;101737.72;;;14.43;58.63
64886;BME280;51514;52.206;5.114;2023-04-15T12:55:25;101743.72;;;14.29;59.42
64886;BME280;51514;52.206;5.114;2023-04-15T12:57:50;101748.47;;;14.01;59.82
64886;BME280;51514;52.206;5.114;2023-04-15T13:00:16;101749.31;;;14.01;61.09
64886;BME280;51514;52.206;5.114;2023-04-15T13:02:43;101753.25;;;14.07;62.16
64886;BME280;51514;52.206;5.114;2023-04-15T13:05:08;101754.63;;;14.11;60.63
64886;BME280;51514;52.206;5.114;2023-04-15T13:07:33;101742.94;;;14.10;60.80